Time;durP1;ratioP1;P1;durP2;ratioP2;P2;SDS_P1;SDS_P2;PMS_P1;PMS_P2;Temp;Humidity;BMP_temperature;BMP_pressure;BME280_temperature;BME280_humidity;BME280_pressure;Samples;Min_cycle;Max_cycle;Signal;HPM_P1;HPM_P2
2022/04/01 00:00:16;;;;;;;2.83;1.40;;;;;;;;;;5083951;28;20509;-78
2022/04/01 00:02:44;;;;;;;3.92;1.70;;;;;;;;;;5083422;28;20123;-78
2022/04/01 00:05:11;;;;;;;4.28;1.30;;;;;;;;;;5084675;28;20051;-79
2022/04/01 00:07:38;;;;;;;2.92;1.65;;;;;;;;;;5080241;28;20046;-78
2022/04/01 00:10:05;;;;;;;2.40;1.27;;;;;;;;;;5064832;28;20055;-79
2022/04/01 00:12:31;;;;;;;2.72;1.15;;;;;;;;;;5097884;28;21300;-81
2022/04/01 00:14:57;;;;;;;3.30;1.10;;;;;;;;;;5083146;28;20039;-79
2022/04/01 00:17:23;;;;;;;4.10;1.45;;;;;;;;;;5068188;28;20078;-79
2022/04/01 00:19:49;;;;;;;5.57;1.30;;;;;;;;;;5069835;28;20052;-80
2022/04/01 00:22:15;;;;;;;3.35;1.30;;;;;;;;;;5081473;28;20444;-81
2022/04/01 00:24:41;;;;;;;4.57;1.50;;;;;;;;;;5080403;28;20048;-79
2022/04/01 00:27:07;;;;;;;2.47;1.35;;;;;;;;;;5065597;28;20043;-80
2022/04/01 00:29:33;;;;;;;2.50;1.40;;;;;;;;;;5066063;28;20057;-79
2022/04/01 00:32:01;;;;;;;2.95;1.40;;;;;;;;;;5097310;28;20042;-79
2022/04/01 00:34:31;;;;;;;2.45;1.52;;;;;;;;;;5076380;28;20052;-79
2022/04/01 00:36:59;;;;;;;5.30;1.48;;;;;;;;;;5080759;28;20067;-79
2022/04/01 00:39:26;;;;;;;3.03;1.13;;;;;;;;;;5098739;28;20051;-79
2022/04/01 00:41:53;;;;;;;4.72;1.50;;;;;;;;;;5078786;28;20113;-81
2022/04/01 00:44:20;;;;;;;5.70;1.52;;;;;;;;;;5082590;28;20040;-80
2022/04/01 00:46:48;;;;;;;3.58;1.50;;;;;;;;;;5072748;28;20093;-79
2022/04/01 00:49:14;;;;;;;3.25;1.60;;;;;;;;;;5080487;28;20040;-79
2022/04/01 00:51:44;;;;;;;1.98;1.30;;;;;;;;;;5083150;28;20055;-79
2022/04/01 00:54:10;;;;;;;4.78;1.65;;;;;;;;;;5098554;27;20043;-79
2022/04/01 00:56:37;;;;;;;2.80;1.20;;;;;;;;;;5066589;28;20047;-79
2022/04/01 00:59:03;;;;;;;2.08;1.23;;;;;;;;;;5066195;28;20713;-80
2022/04/01 01:01:31;;;;;;;7.93;1.40;;;;;;;;;;5082885;28;20052;-79
2022/04/01 01:03:58;;;;;;;2.55;1.42;;;;;;;;;;5081811;28;20050;-78
2022/04/01 01:06:25;;;;;;;4.25;1.50;;;;;;;;;;5081809;28;20371;-79
2022/04/01 01:08:51;;;;;;;4.32;1.05;;;;;;;;;;5061588;28;20048;-78
2022/04/01 01:11:18;;;;;;;1.77;1.00;;;;;;;;;;5083686;28;20051;-80
2022/04/01 01:13:45;;;;;;;2.38;1.10;;;;;;;;;;5083383;28;20137;-78
2022/04/01 01:16:11;;;;;;;3.03;1.40;;;;;;;;;;5051448;28;20076;-79
2022/04/01 01:18:37;;;;;;;4.82;1.40;;;;;;;;;;5105723;27;21298;-81
2022/04/01 01:21:04;;;;;;;4.47;1.30;;;;;;;;;;5091496;28;20471;-78
2022/04/01 01:23:30;;;;;;;5.50;1.60;;;;;;;;;;5101806;28;20055;-79
2022/04/01 01:25:57;;;;;;;3.35;1.55;;;;;;;;;;5067627;28;20051;-79
2022/04/01 01:28:23;;;;;;;2.92;1.60;;;;;;;;;;5082619;28;20051;-82
2022/04/01 01:30:50;;;;;;;3.30;1.60;;;;;;;;;;5099107;28;20399;-79
2022/04/01 01:33:19;;;;;;;6.10;1.48;;;;;;;;;;5099844;28;20070;-79
2022/04/01 01:35:46;;;;;;;5.63;1.63;;;;;;;;;;5064485;28;20077;-78
2022/04/01 01:38:12;;;;;;;4.32;1.50;;;;;;;;;;5060711;28;20040;-79
2022/04/01 01:40:38;;;;;;;3.65;1.83;;;;;;;;;;5068072;28;20372;-78
2022/04/01 01:43:04;;;;;;;3.70;1.70;;;;;;;;;;5084449;28;20040;-79
2022/04/01 01:45:30;;;;;;;2.78;1.45;;;;;;;;;;5067468;28;20135;-78
2022/04/01 01:47:57;;;;;;;3.72;1.40;;;;;;;;;;5077268;28;20051;-79
2022/04/01 01:55:52;;;;;;;7.82;1.85;;;;;;;;;;5065333;28;20445;-78
2022/04/01 01:58:18;;;;;;;1.88;1.27;;;;;;;;;;5066972;28;20193;-80
2022/04/01 02:00:45;;;;;;;4.40;1.30;;;;;;;;;;5063696;28;20064;-78
2022/04/01 02:03:12;;;;;;;4.47;1.40;;;;;;;;;;5080688;28;20126;-80
2022/04/01 02:05:38;;;;;;;3.72;1.65;;;;;;;;;;5106790;28;20045;-79
2022/04/01 02:08:05;;;;;;;4.85;1.48;;;;;;;;;;5084536;28;20482;-79
2022/04/01 02:10:31;;;;;;;4.85;1.45;;;;;;;;;;5082823;28;20074;-79
2022/04/01 02:12:58;;;;;;;3.83;1.42;;;;;;;;;;5085097;28;20036;-82
2022/04/01 02:15:24;;;;;;;3.10;1.27;;;;;;;;;;5089459;28;20085;-79
2022/04/01 02:17:50;;;;;;;2.78;1.33;;;;;;;;;;5092647;28;20443;-77
2022/04/01 02:20:17;;;;;;;5.88;1.70;;;;;;;;;;5100121;28;20052;-77
2022/04/01 02:22:44;;;;;;;6.28;1.70;;;;;;;;;;5076613;28;20072;-81
2022/04/01 02:25:14;;;;;;;2.95;1.30;;;;;;;;;;5097450;28;20052;-78
2022/04/01 02:27:40;;;;;;;5.07;1.50;;;;;;;;;;5114773;27;20067;-77
2022/04/01 02:30:10;;;;;;;4.82;1.25;;;;;;;;;;5045848;28;20071;-78
2022/04/01 02:32:42;;;;;;;6.10;1.70;;;;;;;;;;5080627;28;20075;-78
2022/04/01 02:35:09;;;;;;;3.95;1.48;;;;;;;;;;5085862;28;20043;-78
2022/04/01 02:37:36;;;;;;;6.75;1.60;;;;;;;;;;5068524;28;20467;-81
2022/04/01 02:40:03;;;;;;;6.93;1.63;;;;;;;;;;5069649;28;20460;-77
2022/04/01 02:42:29;;;;;;;4.72;1.30;;;;;;;;;;5088771;28;20043;-81
2022/04/01 02:44:56;;;;;;;7.55;1.13;;;;;;;;;;5088095;28;20044;-77
2022/04/01 02:47:22;;;;;;;3.95;1.50;;;;;;;;;;5102122;27;20151;-78
2022/04/01 02:49:48;;;;;;;9.23;1.85;;;;;;;;;;5102878;28;20428;-77
2022/04/01 02:52:15;;;;;;;7.03;1.45;;;;;;;;;;5070875;28;20044;-78
2022/04/01 02:54:41;;;;;;;4.50;1.60;;;;;;;;;;5070835;28;20208;-79
2022/04/01 02:57:09;;;;;;;5.72;1.20;;;;;;;;;;5122841;27;20051;-78
2022/04/01 02:59:35;;;;;;;3.95;1.33;;;;;;;;;;5070369;28;20056;-78
2022/04/01 03:02:02;;;;;;;4.03;1.25;;;;;;;;;;5083635;28;20044;-77
2022/04/01 03:04:28;;;;;;;3.17;1.13;;;;;;;;;;5086628;28;20051;-77
2022/04/01 03:06:54;;;;;;;5.45;1.70;;;;;;;;;;5101925;27;20450;-81
2022/04/01 03:09:21;;;;;;;2.80;1.13;;;;;;;;;;5116314;27;20051;-78
2022/04/01 03:11:47;;;;;;;5.10;1.33;;;;;;;;;;5085276;28;20043;-78
2022/04/01 03:14:13;;;;;;;3.10;1.20;;;;;;;;;;5071097;28;20509;-77
2022/04/01 03:16:39;;;;;;;3.42;1.30;;;;;;;;;;5067687;28;20052;-81
2022/04/01 03:19:08;;;;;;;8.15;1.25;;;;;;;;;;5072627;28;20032;-78
2022/04/01 03:21:35;;;;;;;6.63;1.40;;;;;;;;;;5075919;28;20079;-81
2022/04/01 03:24:02;;;;;;;4.85;1.50;;;;;;;;;;5086083;28;20040;-79
2022/04/01 03:26:28;;;;;;;2.33;1.10;;;;;;;;;;5082753;28;20507;-77
2022/04/01 03:28:55;;;;;;;2.53;1.25;;;;;;;;;;5095197;27;20527;-77
2022/04/01 03:31:21;;;;;;;6.10;1.20;;;;;;;;;;5091526;28;20052;-78
2022/04/01 03:33:47;;;;;;;3.10;1.50;;;;;;;;;;5080221;28;20036;-77
2022/04/01 03:36:13;;;;;;;3.60;0.90;;;;;;;;;;5099676;28;20386;-77
2022/04/01 03:38:40;;;;;;;4.78;0.90;;;;;;;;;;5079487;28;20044;-77
2022/04/01 03:41:08;;;;;;;6.32;1.08;;;;;;;;;;5069638;28;20097;-77
2022/04/01 03:43:37;;;;;;;3.72;1.17;;;;;;;;;;5083741;28;20044;-81
2022/04/01 03:46:08;;;;;;;4.15;1.13;;;;;;;;;;5083982;28;20048;-77
2022/04/01 03:48:35;;;;;;;4.78;1.30;;;;;;;;;;5065836;28;20036;-78
2022/04/01 03:51:04;;;;;;;3.70;1.20;;;;;;;;;;5071935;28;20048;-80
2022/04/01 03:53:31;;;;;;;4.93;1.17;;;;;;;;;;5080473;28;20052;-78
2022/04/01 03:55:58;;;;;;;8.07;3.10;;;;;;;;;;5078680;28;20044;-77
2022/04/01 03:58:32;;;;;;;4.45;1.15;;;;;;;;;;5103413;27;20043;-79
2022/04/01 04:01:00;;;;;;;2.85;1.45;;;;;;;;;;5096544;28;20060;-78
2022/04/01 04:03:26;;;;;;;6.22;1.02;;;;;;;;;;5062898;28;20100;-78
2022/04/01 04:05:53;;;;;;;4.28;1.20;;;;;;;;;;5063605;28;20479;-78
2022/04/01 04:08:22;;;;;;;3.78;1.00;;;;;;;;;;5080642;28;20080;-80
2022/04/01 04:10:48;;;;;;;3.13;1.17;;;;;;;;;;5083618;28;20482;-79
2022/04/01 04:13:16;;;;;;;5.60;1.25;;;;;;;;;;5111243;27;20799;-77
2022/04/01 04:16:04;;;;;;;4.05;1.17;;;;;;;;;;5065106;28;20150;-77
2022/04/01 04:18:33;;;;;;;4.65;1.30;;;;;;;;;;5066782;28;20127;-79
2022/04/01 04:21:23;;;;;;;4.60;1.67;;;;;;;;;;5061458;28;20376;-76
2022/04/01 04:23:54;;;;;;;4.90;1.40;;;;;;;;;;5062619;28;20085;-78
2022/04/01 04:26:35;;;;;;;4.75;1.30;;;;;;;;;;5068253;28;20066;-76
2022/04/01 04:29:12;;;;;;;4.32;1.20;;;;;;;;;;5083141;28;20044;-77
2022/04/01 04:31:39;;;;;;;6.03;1.15;;;;;;;;;;5092074;27;20044;-78
2022/04/01 04:34:08;;;;;;;6.47;1.27;;;;;;;;;;5067955;28;20036;-80
2022/04/01 04:36:38;;;;;;;6.13;1.20;;;;;;;;;;5076968;28;20040;-77
2022/04/01 04:39:06;;;;;;;3.25;1.45;;;;;;;;;;5072191;28;20086;-80
2022/04/01 04:41:32;;;;;;;5.13;1.88;;;;;;;;;;5078039;28;20090;-78
2022/04/01 04:43:59;;;;;;;3.55;1.20;;;;;;;;;;5097956;27;20032;-76
2022/04/01 04:46:26;;;;;;;7.20;1.30;;;;;;;;;;5066922;28;20044;-81
2022/04/01 04:48:54;;;;;;;3.83;1.33;;;;;;;;;;5082477;28;20051;-76
2022/04/01 04:51:23;;;;;;;4.90;1.02;;;;;;;;;;5065152;28;20060;-83
2022/04/01 04:53:50;;;;;;;2.55;1.00;;;;;;;;;;5086844;28;20417;-77
2022/04/01 04:56:17;;;;;;;3.53;1.13;;;;;;;;;;5091005;28;20045;-81
2022/04/01 04:58:44;;;;;;;4.20;1.20;;;;;;;;;;5080416;28;20052;-80
2022/04/01 05:01:34;;;;;;;7.60;1.42;;;;;;;;;;5078963;28;20053;-79
2022/04/01 05:04:21;;;;;;;4.28;1.33;;;;;;;;;;5090667;28;20052;-78
2022/04/01 05:06:54;;;;;;;4.38;1.20;;;;;;;;;;5108611;28;20044;-78
2022/04/01 05:09:31;;;;;;;7.93;1.83;;;;;;;;;;5067402;28;20048;-79
2022/04/01 05:12:04;;;;;;;7.05;1.20;;;;;;;;;;5071087;28;20040;-79
2022/04/01 05:14:47;;;;;;;6.28;1.35;;;;;;;;;;5099784;28;20048;-79
2022/04/01 05:17:25;;;;;;;5.00;1.42;;;;;;;;;;5072922;28;20178;-79
2022/04/01 05:19:58;;;;;;;8.60;2.45;;;;;;;;;;5103832;28;20051;-80
2022/04/01 05:22:31;;;;;;;3.33;1.15;;;;;;;;;;5071416;28;20049;-79
2022/04/01 05:24:59;;;;;;;3.30;1.13;;;;;;;;;;5072334;28;20051;-78
2022/04/01 05:27:28;;;;;;;2.85;1.20;;;;;;;;;;5074502;28;20370;-78
2022/04/01 05:30:04;;;;;;;3.67;1.77;;;;;;;;;;5107508;28;20510;-82
2022/04/01 05:32:34;;;;;;;5.88;1.27;;;;;;;;;;5112563;28;20053;-79
2022/04/01 05:35:00;;;;;;;3.72;1.52;;;;;;;;;;5119387;28;20225;-79
2022/04/01 05:37:28;;;;;;;6.95;1.60;;;;;;;;;;5081908;28;20398;-79
2022/04/01 05:39:56;;;;;;;3.95;1.20;;;;;;;;;;5086407;28;20433;-80
2022/04/01 05:42:22;;;;;;;4.72;1.00;;;;;;;;;;5087024;28;20048;-80
2022/04/01 05:44:49;;;;;;;5.82;1.95;;;;;;;;;;5064100;28;20135;-80
2022/04/01 05:47:16;;;;;;;2.88;0.80;;;;;;;;;;5067129;28;20064;-79
2022/04/01 05:49:44;;;;;;;8.35;1.40;;;;;;;;;;5085606;28;20491;-84
2022/04/01 05:52:11;;;;;;;4.00;1.13;;;;;;;;;;5063571;28;20087;-79
2022/04/01 05:54:38;;;;;;;4.28;1.13;;;;;;;;;;5088014;28;20044;-79
2022/04/01 05:57:07;;;;;;;7.40;1.38;;;;;;;;;;5078824;28;20110;-82
2022/04/01 05:59:33;;;;;;;3.05;1.20;;;;;;;;;;5108277;28;20064;-80
2022/04/01 06:02:06;;;;;;;8.75;1.65;;;;;;;;;;5071649;28;20050;-78
2022/04/01 06:04:38;;;;;;;9.60;1.52;;;;;;;;;;5092160;28;20048;-79
2022/04/01 06:07:24;;;;;;;9.20;1.30;;;;;;;;;;5091325;28;20070;-78
2022/04/01 06:10:01;;;;;;;6.80;1.40;;;;;;;;;;5083864;28;20109;-78
2022/04/01 06:12:29;;;;;;;5.28;1.50;;;;;;;;;;5072646;28;20124;-79
2022/04/01 06:14:58;;;;;;;6.85;1.58;;;;;;;;;;5096614;27;20044;-79
2022/04/01 06:17:24;;;;;;;3.80;1.50;;;;;;;;;;5083732;28;20044;-79
2022/04/01 06:19:51;;;;;;;3.90;1.20;;;;;;;;;;5093465;28;20056;-79
2022/04/01 06:22:21;;;;;;;5.15;1.40;;;;;;;;;;5065382;28;20052;-79
2022/04/01 06:25:11;;;;;;;6.47;1.20;;;;;;;;;;5073019;28;20048;-83
2022/04/01 06:27:40;;;;;;;6.00;1.38;;;;;;;;;;5079746;28;20048;-78
2022/04/01 06:30:06;;;;;;;2.63;1.25;;;;;;;;;;5069533;28;20135;-79
2022/04/01 06:32:58;;;;;;;3.80;1.23;;;;;;;;;;5077386;28;20056;-79
2022/04/01 06:35:24;;;;;;;8.85;1.35;;;;;;;;;;5071558;28;20131;-79
2022/04/01 06:38:00;;;;;;;2.85;1.20;;;;;;;;;;5119899;27;20114;-79
2022/04/01 06:40:48;;;;;;;7.15;1.50;;;;;;;;;;5091852;28;20048;-79
2022/04/01 06:43:15;;;;;;;3.05;1.27;;;;;;;;;;5104239;28;20087;-81
2022/04/01 06:45:42;;;;;;;4.95;1.17;;;;;;;;;;5084807;28;20083;-79
2022/04/01 06:48:08;;;;;;;6.90;2.03;;;;;;;;;;5099526;28;20475;-79
2022/04/01 06:50:34;;;;;;;3.05;1.17;;;;;;;;;;5061141;28;20043;-79
2022/04/01 06:53:01;;;;;;;2.75;0.98;;;;;;;;;;5087027;28;20414;-79
2022/04/01 06:55:27;;;;;;;2.35;1.35;;;;;;;;;;5108818;27;20048;-79
2022/04/01 06:57:53;;;;;;;4.18;1.05;;;;;;;;;;5147168;27;20039;-82
2022/04/01 07:00:20;;;;;;;4.22;1.13;;;;;;;;;;5074533;28;20075;-79
2022/04/01 07:02:46;;;;;;;3.83;1.20;;;;;;;;;;5063657;28;20044;-79
2022/04/01 07:05:12;;;;;;;3.63;1.13;;;;;;;;;;5110691;27;20132;-79
2022/04/01 07:07:41;;;;;;;3.60;1.20;;;;;;;;;;5067982;28;20394;-78
2022/04/01 07:10:09;;;;;;;3.47;1.13;;;;;;;;;;5081241;28;20048;-80
2022/04/01 07:12:37;;;;;;;3.05;1.17;;;;;;;;;;5079516;28;20055;-79
2022/04/01 07:15:03;;;;;;;3.70;1.20;;;;;;;;;;5076952;28;20087;-78
2022/04/01 07:17:29;;;;;;;4.28;1.27;;;;;;;;;;5079200;28;20043;-82
2022/04/01 07:19:55;;;;;;;4.03;1.10;;;;;;;;;;5075761;28;20040;-78
2022/04/01 07:22:21;;;;;;;2.35;1.17;;;;;;;;;;5091013;28;20055;-78
2022/04/01 07:24:47;;;;;;;2.53;1.30;;;;;;;;;;5081777;28;20493;-78
2022/04/01 07:27:14;;;;;;;3.15;1.23;;;;;;;;;;5085170;28;20048;-77
2022/04/01 07:29:40;;;;;;;5.13;0.90;;;;;;;;;;5084282;28;20135;-78
2022/04/01 07:34:51;;;;;;;1.50;0.75;;;;;;;;;;5104322;27;20241;-79
2022/04/01 07:37:23;;;;;;;3.28;0.88;;;;;;;;;;5079114;28;20063;-81
2022/04/01 07:39:50;;;;;;;5.00;1.48;;;;;;;;;;5084422;28;20051;-81
2022/04/01 07:42:16;;;;;;;2.90;0.80;;;;;;;;;;5091810;28;20347;-81
2022/04/01 07:44:42;;;;;;;1.83;0.80;;;;;;;;;;5086898;28;20038;-78
2022/04/01 07:47:09;;;;;;;1.88;0.80;;;;;;;;;;5088942;28;20045;-83
2022/04/01 07:49:40;;;;;;;2.10;1.00;;;;;;;;;;5067180;28;20075;-80
2022/04/01 07:52:10;;;;;;;3.33;0.88;;;;;;;;;;5088266;28;21861;-82
2022/04/01 07:54:40;;;;;;;5.22;1.10;;;;;;;;;;5074630;28;20135;-81
2022/04/01 07:57:07;;;;;;;5.38;1.00;;;;;;;;;;5092726;28;20161;-83
2022/04/01 07:59:33;;;;;;;2.65;0.98;;;;;;;;;;5095612;28;20486;-82
2022/04/01 08:02:00;;;;;;;3.15;1.35;;;;;;;;;;5107443;27;20067;-82
2022/04/01 08:04:27;;;;;;;5.78;1.58;;;;;;;;;;5085341;28;20086;-83
2022/04/01 08:06:53;;;;;;;3.75;1.52;;;;;;;;;;5090888;28;20131;-83
2022/04/01 08:09:19;;;;;;;4.50;1.55;;;;;;;;;;5074245;28;20039;-84
2022/04/01 08:11:46;;;;;;;4.63;1.20;;;;;;;;;;5093330;28;20067;-82
2022/04/01 08:14:12;;;;;;;3.97;1.45;;;;;;;;;;5081551;28;20070;-83
2022/04/01 08:16:38;;;;;;;3.10;1.20;;;;;;;;;;5088201;28;20040;-83
2022/04/01 08:19:05;;;;;;;3.70;1.40;;;;;;;;;;5090201;28;20378;-84
2022/04/01 08:21:32;;;;;;;7.32;1.55;;;;;;;;;;5092063;28;20051;-83
2022/04/01 08:23:58;;;;;;;2.13;1.38;;;;;;;;;;5087477;28;20059;-84
2022/04/01 08:26:25;;;;;;;5.25;1.48;;;;;;;;;;5087807;28;20047;-84
2022/04/01 08:28:51;;;;;;;5.25;1.77;;;;;;;;;;5070786;28;20094;-83
2022/04/01 08:31:17;;;;;;;5.18;1.67;;;;;;;;;;5078728;28;20040;-83
2022/04/01 08:33:45;;;;;;;3.40;1.48;;;;;;;;;;5081543;28;20044;-83
2022/04/01 08:36:12;;;;;;;2.97;1.98;;;;;;;;;;5071152;28;20097;-84
2022/04/01 08:38:38;;;;;;;3.13;1.52;;;;;;;;;;5093099;28;20468;-83
2022/04/01 08:41:04;;;;;;;4.13;1.50;;;;;;;;;;5113887;27;20044;-85
2022/04/01 08:43:31;;;;;;;2.95;1.05;;;;;;;;;;5112582;27;20048;-84
2022/04/01 08:45:59;;;;;;;2.95;1.50;;;;;;;;;;5108683;27;20106;-84
2022/04/01 08:48:26;;;;;;;4.88;1.60;;;;;;;;;;5073249;28;20421;-86
2022/04/01 08:50:52;;;;;;;4.45;1.65;;;;;;;;;;5091282;28;20036;-83
2022/04/01 08:53:18;;;;;;;2.35;1.33;;;;;;;;;;5078207;28;20059;-83
2022/04/01 08:55:48;;;;;;;4.40;1.60;;;;;;;;;;5099110;28;20047;-82
2022/04/01 08:58:17;;;;;;;3.35;1.45;;;;;;;;;;5062722;28;20540;-82
2022/04/01 09:00:44;;;;;;;4.35;1.67;;;;;;;;;;5062220;28;20054;-82
2022/04/01 09:03:11;;;;;;;3.38;1.30;;;;;;;;;;5084273;28;20044;-83
2022/04/01 09:05:37;;;;;;;3.38;1.27;;;;;;;;;;5127044;28;20075;-83
2022/04/01 09:08:08;;;;;;;3.65;1.23;;;;;;;;;;5082873;28;20070;-82
2022/04/01 09:10:49;;;;;;;2.50;1.30;;;;;;;;;;5097204;28;20044;-82
2022/04/01 09:13:16;;;;;;;2.58;1.10;;;;;;;;;;5059428;28;20458;-83
2022/04/01 09:15:43;;;;;;;2.67;1.30;;;;;;;;;;5105758;27;20368;-82
2022/04/01 09:18:10;;;;;;;5.88;1.50;;;;;;;;;;5112655;27;20501;-83
2022/04/01 09:20:43;;;;;;;3.53;1.42;;;;;;;;;;5060606;28;20048;-82
2022/04/01 09:23:09;;;;;;;2.78;1.50;;;;;;;;;;5088547;28;20406;-82
2022/04/01 09:25:35;;;;;;;8.75;1.33;;;;;;;;;;5089573;28;20051;-81
2022/04/01 09:28:01;;;;;;;4.25;1.30;;;;;;;;;;5099199;28;20092;-84
2022/04/01 09:30:29;;;;;;;3.72;1.20;;;;;;;;;;5076811;28;20053;-82
2022/04/01 09:32:57;;;;;;;2.15;1.30;;;;;;;;;;5113076;28;20135;-82
2022/04/01 09:35:26;;;;;;;2.92;1.25;;;;;;;;;;5099079;28;20048;-82
2022/04/01 09:37:58;;;;;;;3.75;1.40;;;;;;;;;;5102734;27;20497;-82
2022/04/01 09:40:25;;;;;;;2.63;1.45;;;;;;;;;;5110253;27;20055;-82
2022/04/01 09:43:00;;;;;;;4.47;2.00;;;;;;;;;;5103829;27;20376;-85
2022/04/01 09:45:31;;;;;;;4.18;1.80;;;;;;;;;;5086846;28;20047;-76
2022/04/01 09:48:07;;;;;;;3.92;1.70;;;;;;;;;;5099944;28;20115;-74
2022/04/01 09:50:34;;;;;;;3.33;1.58;;;;;;;;;;5079026;28;20059;-77
2022/04/01 09:53:07;;;;;;;3.05;1.88;;;;;;;;;;5073395;28;20050;-78
2022/04/01 09:55:41;;;;;;;3.50;1.70;;;;;;;;;;5072024;28;20045;-76
2022/04/01 09:58:07;;;;;;;2.97;1.48;;;;;;;;;;5084741;28;20040;-77
2022/04/01 10:00:34;;;;;;;1.95;1.55;;;;;;;;;;5077957;28;20060;-74
2022/04/01 10:03:00;;;;;;;4.35;1.48;;;;;;;;;;5090380;28;20411;-73
2022/04/01 10:05:26;;;;;;;3.47;2.00;;;;;;;;;;5098009;28;20084;-74
2022/04/01 10:07:53;;;;;;;2.78;1.58;;;;;;;;;;5081219;28;20055;-73
2022/04/01 10:10:20;;;;;;;2.85;1.70;;;;;;;;;;5089398;28;20055;-73
2022/04/01 10:12:47;;;;;;;2.72;1.58;;;;;;;;;;5108380;28;20085;-76
2022/04/01 10:15:14;;;;;;;1.92;1.35;;;;;;;;;;5090975;28;20074;-79
2022/04/01 10:17:41;;;;;;;2.80;1.27;;;;;;;;;;5077787;28;20037;-78
2022/04/01 10:20:08;;;;;;;5.68;1.60;;;;;;;;;;5096353;28;20052;-79
2022/04/01 10:22:37;;;;;;;4.05;1.80;;;;;;;;;;5066232;28;20044;-78
2022/04/01 10:25:18;;;;;;;3.17;1.83;;;;;;;;;;5091434;28;20512;-78
2022/04/01 10:27:48;;;;;;;4.22;1.90;;;;;;;;;;5092993;28;20036;-77
2022/04/01 10:30:15;;;;;;;2.00;1.45;;;;;;;;;;5073965;28;20441;-76
2022/04/01 10:32:43;;;;;;;2.60;1.38;;;;;;;;;;5090822;28;20528;-77
2022/04/01 10:35:21;;;;;;;3.17;1.50;;;;;;;;;;5092023;28;20040;-78
2022/04/01 10:37:52;;;;;;;3.55;1.85;;;;;;;;;;5075167;28;20040;-76
2022/04/01 10:40:18;;;;;;;2.63;1.40;;;;;;;;;;5088199;28;20157;-82
2022/04/01 10:42:45;;;;;;;2.90;1.30;;;;;;;;;;5123717;27;20435;-79
2022/04/01 10:45:18;;;;;;;2.28;1.10;;;;;;;;;;5107945;28;20374;-80
2022/04/01 10:51:36;;;;;;;;;;;;;;;;;;5091166;28;20032;-78
2022/04/01 10:53:33;;;;;;;1.92;0.70;;;;;;;;;;5090020;28;20014;-78
2022/04/01 10:56:18;;;;;;;1.48;0.82;;;;;;;;;;5076037;28;20126;-78
2022/04/01 10:59:00;;;;;;;3.28;1.13;;;;;;;;;;5091959;28;20052;-79
2022/04/01 11:01:26;;;;;;;2.50;1.30;;;;;;;;;;5072626;28;20470;-76
2022/04/01 11:03:52;;;;;;;2.17;0.82;;;;;;;;;;5074885;28;20424;-76
2022/04/01 11:06:22;;;;;;;1.33;0.80;;;;;;;;;;5071895;28;20043;-76
2022/04/01 11:08:52;;;;;;;6.80;2.42;;;;;;;;;;5091194;28;20455;-77
2022/04/01 11:11:18;;;;;;;6.07;2.15;;;;;;;;;;5072849;28;20434;-76
2022/04/01 11:14:01;;;;;;;7.10;1.27;;;;;;;;;;5090077;28;20040;-75
2022/04/01 11:16:27;;;;;;;5.78;1.02;;;;;;;;;;5088215;28;20646;-76
2022/04/01 11:19:12;;;;;;;1.20;0.90;;;;;;;;;;5089759;28;20474;-76
2022/04/01 11:21:38;;;;;;;1.50;1.00;;;;;;;;;;5076095;28;20114;-77
2022/04/01 11:24:04;;;;;;;4.10;1.20;;;;;;;;;;5074186;28;20123;-76
2022/04/01 11:26:41;;;;;;;6.47;1.88;;;;;;;;;;5089305;28;20040;-76
2022/04/01 11:29:17;;;;;;;4.18;1.58;;;;;;;;;;5094510;28;20119;-77
2022/04/01 11:31:44;;;;;;;1.60;0.70;;;;;;;;;;5090000;28;20036;-77
2022/04/01 11:34:10;;;;;;;3.28;1.10;;;;;;;;;;5089144;28;20032;-77
2022/04/01 11:36:36;;;;;;;4.32;1.50;;;;;;;;;;5091677;28;20040;-77
2022/04/01 11:39:04;;;;;;;2.63;1.00;;;;;;;;;;5090202;28;20028;-77
2022/04/01 11:41:30;;;;;;;3.33;0.80;;;;;;;;;;5087858;28;20050;-77
2022/04/01 11:43:57;;;;;;;1.92;0.60;;;;;;;;;;5074356;28;20050;-77
2022/04/01 11:46:23;;;;;;;2.15;0.60;;;;;;;;;;5090261;28;20474;-77
2022/04/01 11:48:50;;;;;;;2.78;0.70;;;;;;;;;;5057344;28;20039;-76
2022/04/01 11:51:19;;;;;;;1.35;0.90;;;;;;;;;;5071841;28;20127;-79
2022/04/01 11:53:50;;;;;;;4.80;0.80;;;;;;;;;;5072855;28;20047;-78
2022/04/01 11:56:20;;;;;;;2.30;0.80;;;;;;;;;;5090502;28;20040;-77
2022/04/01 11:59:00;;;;;;;2.30;0.88;;;;;;;;;;5090510;28;20058;-77
2022/04/01 12:01:28;;;;;;;3.40;1.10;;;;;;;;;;5089236;28;20056;-77
2022/04/01 12:04:05;;;;;;;3.78;0.90;;;;;;;;;;5090393;28;20478;-77
2022/04/01 12:09:15;;;;;;;1.80;0.90;;;;;;;;;;5088835;28;20482;-78
2022/04/01 12:11:42;;;;;;;1.92;0.82;;;;;;;;;;5091684;28;20428;-77
2022/04/01 12:14:09;;;;;;;2.47;0.75;;;;;;;;;;5072035;28;20119;-77
2022/04/01 12:16:39;;;;;;;3.97;1.08;;;;;;;;;;5073630;28;20116;-75
2022/04/01 12:19:05;;;;;;;2.88;0.90;;;;;;;;;;5087734;28;20107;-76
2022/04/01 12:21:31;;;;;;;2.22;0.90;;;;;;;;;;5088422;28;20052;-75
2022/04/01 12:23:57;;;;;;;2.05;0.93;;;;;;;;;;5086473;28;20073;-75
2022/04/01 12:26:27;;;;;;;1.67;0.98;;;;;;;;;;5088142;28;20051;-76
2022/04/01 12:28:53;;;;;;;4.70;1.38;;;;;;;;;;5088069;28;20058;-76
2022/04/01 12:31:20;;;;;;;3.38;1.23;;;;;;;;;;5088051;28;20055;-75
2022/04/01 12:33:50;;;;;;;1.50;1.00;;;;;;;;;;5087096;28;20079;-75
2022/04/01 12:36:18;;;;;;;3.53;1.23;;;;;;;;;;5088252;28;20510;-76
2022/04/01 12:38:59;;;;;;;2.78;1.10;;;;;;;;;;5071316;28;20044;-77
2022/04/01 12:41:25;;;;;;;4.38;1.42;;;;;;;;;;5087122;28;20051;-80
2022/04/01 12:43:53;;;;;;;4.13;1.17;;;;;;;;;;5080528;28;20487;-77
2022/04/01 12:46:23;;;;;;;4.03;1.52;;;;;;;;;;5122329;27;20048;-77
2022/04/01 12:48:49;;;;;;;7.43;1.10;;;;;;;;;;5070765;28;20402;-77
2022/04/01 12:51:18;;;;;;;3.00;1.30;;;;;;;;;;5104399;27;20052;-83
2022/04/01 12:53:54;;;;;;;3.15;1.45;;;;;;;;;;5093403;28;20051;-75
2022/04/01 12:56:21;;;;;;;5.30;1.30;;;;;;;;;;5095478;28;20059;-76
2022/04/01 12:58:55;;;;;;;3.00;1.25;;;;;;;;;;5073185;28;20072;-75
2022/04/01 13:01:28;;;;;;;2.08;1.00;;;;;;;;;;5086754;28;20133;-76
2022/04/01 13:03:56;;;;;;;3.25;1.13;;;;;;;;;;5114371;27;20056;-74
2022/04/01 13:06:23;;;;;;;2.97;1.20;;;;;;;;;;5061649;28;20071;-74
2022/04/01 13:09:03;;;;;;;5.28;1.10;;;;;;;;;;5074925;28;20101;-74
2022/04/01 13:11:36;;;;;;;4.03;1.48;;;;;;;;;;5114684;27;20169;-75
2022/04/01 13:14:03;;;;;;;2.83;1.17;;;;;;;;;;5085441;28;20044;-74
2022/04/01 13:16:39;;;;;;;3.00;1.02;;;;;;;;;;5068569;28;20135;-75
2022/04/01 13:19:26;;;;;;;5.15;1.10;;;;;;;;;;5090957;28;20048;-77
2022/04/01 13:21:53;;;;;;;7.80;1.20;;;;;;;;;;5082052;28;20071;-75
2022/04/01 13:24:20;;;;;;;5.95;1.20;;;;;;;;;;5081476;28;20044;-81
2022/04/01 13:26:46;;;;;;;3.17;1.00;;;;;;;;;;5103692;28;20057;-75
2022/04/01 13:29:12;;;;;;;2.28;0.90;;;;;;;;;;5070796;28;20061;-77
2022/04/01 13:31:40;;;;;;;2.53;1.10;;;;;;;;;;5099306;27;20413;-76
2022/04/01 13:34:07;;;;;;;3.03;1.30;;;;;;;;;;5087248;28;20093;-75
2022/04/01 13:36:33;;;;;;;4.18;1.23;;;;;;;;;;5068628;28;20062;-75
2022/04/01 13:39:00;;;;;;;3.65;1.40;;;;;;;;;;5084194;28;20044;-76
2022/04/01 13:41:26;;;;;;;3.53;1.10;;;;;;;;;;5077112;28;20052;-76
2022/04/01 13:43:53;;;;;;;6.03;1.20;;;;;;;;;;5090848;28;20040;-76
2022/04/01 13:46:20;;;;;;;4.93;1.48;;;;;;;;;;5088260;28;20056;-79
2022/04/01 13:48:46;;;;;;;6.53;1.40;;;;;;;;;;5068883;28;20094;-76
2022/04/01 13:51:13;;;;;;;12.38;1.40;;;;;;;;;;5082263;28;20051;-78
2022/04/01 13:53:39;;;;;;;7.50;1.40;;;;;;;;;;5079035;28;20749;-75
2022/04/01 13:56:05;;;;;;;2.65;1.30;;;;;;;;;;5093143;27;20078;-75
2022/04/01 13:58:31;;;;;;;3.80;1.08;;;;;;;;;;5087440;28;20123;-75
2022/04/01 14:00:57;;;;;;;3.80;1.30;;;;;;;;;;5077105;27;20445;-75
2022/04/01 14:03:24;;;;;;;3.58;1.50;;;;;;;;;;5072047;28;20055;-75
2022/04/01 14:05:51;;;;;;;2.63;1.35;;;;;;;;;;5078426;28;20056;-76
2022/04/01 14:08:17;;;;;;;4.10;1.27;;;;;;;;;;5090968;28;20479;-76
2022/04/01 14:10:45;;;;;;;2.75;1.17;;;;;;;;;;5079884;28;20071;-76
2022/04/01 14:13:11;;;;;;;6.43;1.52;;;;;;;;;;5074149;28;20061;-76
2022/04/01 14:15:38;;;;;;;6.28;1.58;;;;;;;;;;5068854;28;20045;-75
2022/04/01 14:18:04;;;;;;;3.53;1.40;;;;;;;;;;5085794;28;20064;-76
2022/04/01 14:20:30;;;;;;;6.13;1.48;;;;;;;;;;5116259;28;20052;-74
2022/04/01 14:22:56;;;;;;;3.58;1.20;;;;;;;;;;5085044;28;20049;-73
2022/04/01 14:25:23;;;;;;;4.75;1.50;;;;;;;;;;5073850;28;20128;-75
2022/04/01 14:27:49;;;;;;;3.85;1.10;;;;;;;;;;5097293;28;20053;-74
2022/04/01 14:30:18;;;;;;;5.10;1.10;;;;;;;;;;5114664;27;20383;-74
2022/04/01 14:32:48;;;;;;;4.35;1.30;;;;;;;;;;5089051;28;20391;-74
2022/04/01 14:35:15;;;;;;;3.22;1.58;;;;;;;;;;5121765;27;20049;-78
2022/04/01 14:37:41;;;;;;;5.80;1.52;;;;;;;;;;5091634;28;20059;-81
2022/04/01 14:40:08;;;;;;;3.33;1.40;;;;;;;;;;5088044;28;20123;-77
2022/04/01 14:42:34;;;;;;;10.00;1.55;;;;;;;;;;5087628;28;20048;-84
2022/04/01 14:45:01;;;;;;;6.03;1.70;;;;;;;;;;5108269;27;20052;-73
2022/04/01 14:47:28;;;;;;;5.22;1.60;;;;;;;;;;5095955;28;20053;-75
2022/04/01 14:49:54;;;;;;;2.78;1.15;;;;;;;;;;5089666;28;20119;-79
2022/04/01 14:52:21;;;;;;;8.02;1.60;;;;;;;;;;5089151;28;20056;-78
2022/04/01 14:54:48;;;;;;;3.63;1.48;;;;;;;;;;5067637;28;20049;-77
2022/04/01 14:57:16;;;;;;;4.45;1.20;;;;;;;;;;5086519;28;20518;-79
2022/04/01 14:59:42;;;;;;;5.85;1.40;;;;;;;;;;5078160;28;20095;-76
2022/04/01 15:02:08;;;;;;;6.35;1.75;;;;;;;;;;5093045;28;20056;-78
2022/04/01 15:04:34;;;;;;;3.90;1.27;;;;;;;;;;5075315;28;20040;-77